地図

経路データ

SID SEASON NUMBER BASIN SUBBASIN NAME ISO_TIME NATURE LAT LON WMO_WIND WMO_PRES WMO_AGENCY TRACK_TYPE DIST2LAND LANDFALL IFLAG USA_AGENCY USA_ATCF_ID USA_LAT USA_LON USA_RECORD USA_STATUS USA_WIND USA_PRES USA_SSHS USA_R34_NE USA_R34_SE USA_R34_SW USA_R34_NW USA_R50_NE USA_R50_SE USA_R50_SW USA_R50_NW USA_R64_NE USA_R64_SE USA_R64_SW USA_R64_NW USA_POCI USA_ROCI USA_RMW USA_EYE TOKYO_LAT TOKYO_LON TOKYO_GRADE TOKYO_WIND TOKYO_PRES TOKYO_R50_DIR TOKYO_R50_LONG TOKYO_R50_SHORT TOKYO_R30_DIR TOKYO_R30_LONG TOKYO_R30_SHORT TOKYO_LAND CMA_LAT CMA_LON CMA_CAT CMA_WIND CMA_PRES HKO_LAT HKO_LON HKO_CAT HKO_WIND HKO_PRES NEWDELHI_LAT NEWDELHI_LON NEWDELHI_GRADE NEWDELHI_WIND NEWDELHI_PRES NEWDELHI_CI NEWDELHI_DP NEWDELHI_POCI REUNION_LAT REUNION_LON REUNION_TYPE REUNION_WIND REUNION_PRES REUNION_TNUM REUNION_CI REUNION_RMW REUNION_R34_NE REUNION_R34_SE REUNION_R34_SW REUNION_R34_NW REUNION_R50_NE REUNION_R50_SE REUNION_R50_SW REUNION_R50_NW REUNION_R64_NE REUNION_R64_SE REUNION_R64_SW REUNION_R64_NW BOM_LAT BOM_LON BOM_TYPE BOM_WIND BOM_PRES BOM_TNUM BOM_CI BOM_RMW BOM_R34_NE BOM_R34_SE BOM_R34_SW BOM_R34_NW BOM_R50_NE BOM_R50_SE BOM_R50_SW BOM_R50_NW BOM_R64_NE BOM_R64_SE BOM_R64_SW BOM_R64_NW BOM_ROCI BOM_POCI BOM_EYE BOM_POS_METHOD BOM_PRES_METHOD NADI_LAT NADI_LON NADI_CAT NADI_WIND NADI_PRES WELLINGTON_LAT WELLINGTON_LON WELLINGTON_WIND WELLINGTON_PRES DS824_LAT DS824_LON DS824_STAGE DS824_WIND DS824_PRES TD9636_LAT TD9636_LON TD9636_STAGE TD9636_WIND TD9636_PRES TD9635_LAT TD9635_LON TD9635_WIND TD9635_PRES TD9635_ROCI NEUMANN_LAT NEUMANN_LON NEUMANN_CLASS NEUMANN_WIND NEUMANN_PRES MLC_LAT MLC_LON MLC_CLASS MLC_WIND MLC_PRES USA_GUST BOM_GUST BOM_GUST_PER REUNION_GUST REUNION_GUST_PER USA_SEAHGT USA_SEARAD_NE USA_SEARAD_SE USA_SEARAD_SW USA_SEARAD_NW STORM_SPEED STORM_DIR
1908032S12057 1908 5 SI MM NOT_NAMED 1908-02-01 06:00:00 NR -12.4000 56.6000 reunion main 721 711 _____O________ -1 -12.4000 56.6000 99 9.90000 1 268
1908032S12057 1908 5 SI MM NOT_NAMED 1908-02-01 09:00:00 NR -12.4021 56.5329 main 711 711 _____P________ -1 -12.4021 56.5329 99 1 292
1908032S12057 1908 5 SI MM NOT_NAMED 1908-02-01 12:00:00 NR -12.3789 56.5443 main 711 700 _____P____O___ -1 -12.4053 56.4590 99 -12.3000 56.8000 7 1 277
1908032S12057 1908 5 SI MM NOT_NAMED 1908-02-01 15:00:00 NR -12.3908 56.4307 main 700 689 _____P____P___ -1 -12.4104 56.3718 99 -12.3517 56.5485 7 3 263
1908032S12057 1908 5 SI MM NOT_NAMED 1908-02-01 18:00:00 NR -12.4117 56.2744 main 689 668 _____P____P___ -1 -12.4185 56.2645 99 -12.4026 56.2876 7 4 262
1908032S12057 1908 5 SI MM NOT_NAMED 1908-02-01 21:00:00 NR -12.4414 56.0691 main 668 634 _____P____P___ -1 -12.4306 56.1304 99 -12.4522 56.0079 7 4 262
1908032S12057 1908 5 SI MM NOT_NAMED 1908-02-02 00:00:00 NR -12.4738 55.8314 main 634 613 _____P____O___ -1 -12.4476 55.9627 99 -12.5000 55.7000 7 5 262
1908032S12057 1908 5 SI MM NOT_NAMED 1908-02-02 03:00:00 NR -12.5082 55.5563 main 613 581 _____P____P___ -1 -12.4704 55.7549 99 -12.5459 55.3577 7 6 263
1908032S12057 1908 5 SI MM NOT_NAMED 1908-02-02 06:00:00 NR -12.5462 55.2437 reunion main 571 537 _____O____P___ -1 -12.5000 55.5000 99 9.90000 -12.5925 54.9874 7 7 263
1908032S12057 1908 5 SI MM NOT_NAMED 1908-02-02 09:00:00 NR -12.5898 54.8964 main 537 495 _____P____P___ -1 -12.5368 55.1944 99 -12.6427 54.5983 7 7 262
1908032S12057 1908 5 SI MM NOT_NAMED 1908-02-02 12:00:00 NR -12.6400 54.5231 main 495 450 _____P____O___ -1 -12.5799 54.8463 99 -12.7000 54.2000 7 8 262
1908032S12057 1908 5 SI MM NOT_NAMED 1908-02-02 15:00:00 NR -12.7000 54.1229 main 450 405 _____P____P___ -1 -12.6280 54.4670 99 -12.7720 53.7789 7 8 261
1908032S12057 1908 5 SI MM NOT_NAMED 1908-02-02 18:00:00 NR -12.7649 53.7115 main 405 363 _____P____P___ -1 -12.6797 54.0679 99 -12.8502 53.3552 7 8 261
1908032S12057 1908 5 SI MM NOT_NAMED 1908-02-02 21:00:00 NR -12.8311 53.3071 main 363 319 _____P____P___ -1 -12.7338 53.6603 99 -12.9283 52.9538 7 8 260
1908032S12057 1908 5 SI MM NOT_NAMED 1908-02-03 00:00:00 NR -12.8947 52.9278 main 319 287 _____P____O___ -1 -12.7893 53.2555 99 -13.0000 52.6000 7 7 260
1908032S12057 1908 5 SI MM NOT_NAMED 1908-02-03 03:00:00 NR -12.9529 52.5988 main 285 253 _____P____P___ -1 -12.8450 52.8650 99 -13.0609 52.3327 7 6 259
1908032S12057 1908 5 SI MM NOT_NAMED 1908-02-03 06:00:00 NR -13.0072 52.3062 reunion main 253 229 _____O____P___ -1 -12.9000 52.5000 99 9.90000 -13.1145 52.1124 7 5 259
1908032S12057 1908 5 SI MM NOT_NAMED 1908-02-03 09:00:00 NR -13.0541 52.0590 main 229 197 _____P____P___ -1 -12.9474 52.2072 99 -13.1609 51.9109 7 5 259
1908032S12057 1908 5 SI MM NOT_NAMED 1908-02-03 12:00:00 NR -13.0974 51.8180 main 197 176 _____P____O___ -1 -12.9947 51.9360 99 -13.2000 51.7000 7 5 261
1908032S12057 1908 5 SI MM NOT_NAMED 1908-02-03 15:00:00 NR -13.1332 51.5645 main 176 142 _____P____P___ -1 -13.0424 51.6817 99 -13.2240 51.4474 7 5 262
1908032S12057 1908 5 SI MM NOT_NAMED 1908-02-03 18:00:00 NR -13.1666 51.3097 main 142 121 _____P____P___ -1 -13.0909 51.4397 99 -13.2424 51.1798 7 5 262
1908032S12057 1908 5 SI MM NOT_NAMED 1908-02-03 21:00:00 NR -13.2026 51.0512 main 121 89 _____P____P___ -1 -13.1406 51.2051 99 -13.2646 50.8974 7 5 261
1908032S12057 1908 5 SI MM NOT_NAMED 1908-02-04 00:00:00 NR -13.2459 50.7867 main 89 55 _____P____O___ -1 -13.1917 50.9735 99 -13.3000 50.6000 7 5 259
1908032S12057 1908 5 SI MM NOT_NAMED 1908-02-04 03:00:00 NR -13.3047 50.5107 main 55 21 _____P____P___ -1 -13.2448 50.7400 99 -13.3647 50.2814 7 6 257
1908032S12057 1908 5 SI MM NOT_NAMED 1908-02-04 06:00:00 NR -13.3713 50.2251 reunion main 21 0 _____O____P___ -1 -13.3000 50.5000 99 9.90000 -13.4426 49.9501 7 6 257
1908032S12057 1908 5 SI MM NOT_NAMED 1908-02-04 09:00:00 NR -13.4350 49.9369 main 0 0 _____P____P___ -1 -13.3459 50.2549 99 -13.5241 49.6188 7 6 257
1908032S12057 1908 5 SI MM NOT_NAMED 1908-02-04 12:00:00 NR -13.4962 49.6541 main 0 0 _____P____O___ -1 -13.3925 50.0081 99 -13.6000 49.3000 7 5 258
1908032S12057 1908 5 SI MM NOT_NAMED 1908-02-04 15:00:00 NR -13.5432 49.3935 main 0 0 _____P____P___ -1 -13.4418 49.7563 99 -13.6446 49.0307 7 5 259
1908032S12057 1908 5 SI MM NOT_NAMED 1908-02-04 18:00:00 NR -13.5902 49.1341 main 0 0 _____P____P___ -1 -13.4960 49.4960 99 -13.6845 48.7721 7 5 259
1908032S12057 1908 5 SI MM NOT_NAMED 1908-02-04 21:00:00 NR -13.6445 48.8631 main 0 0 _____P____P___ -1 -13.5569 49.2237 99 -13.7321 48.5025 7 6 257
1908032S12057 1908 5 SI MM NOT_NAMED 1908-02-05 00:00:00 NR -13.7133 48.5680 main 0 0 _____P____O___ -1 -13.6265 48.9360 99 -13.8000 48.2000 7 6 256
1908032S12057 1908 5 SI MM NOT_NAMED 1908-02-05 03:00:00 NR -13.8032 48.2306 main 0 0 _____P____P___ -1 -13.7069 48.6292 99 -13.8995 47.8319 7 7 254
1908032S12057 1908 5 SI MM NOT_NAMED 1908-02-05 06:00:00 NR -13.9101 47.8650 reunion main 0 0 _____O____P___ -1 -13.8000 48.3000 99 9.90000 -14.0201 47.4300 7 8 253
1908032S12057 1908 5 SI MM NOT_NAMED 1908-02-05 09:00:00 NR -14.0379 47.4562 main 44 44 _____P____P___ -1 -13.9202 47.8993 99 -14.1557 47.0131 7 8 252
1908032S12057 1908 5 SI MM NOT_NAMED 1908-02-05 12:00:00 NR -14.1771 47.0352 main 78 78 _____P____O___ -1 -14.0542 47.4704 99 -14.3000 46.6000 7 9 251
1908032S12057 1908 5 SI MM NOT_NAMED 1908-02-05 15:00:00 NR -14.3283 46.6056 main 100 100 _____P____P___ -1 -14.1974 47.0256 99 -14.4591 46.1855 7 9 250
1908032S12057 1908 5 SI MM NOT_NAMED 1908-02-05 18:00:00 NR -14.4840 46.1801 main 109 109 _____P____P___ -1 -14.3454 46.5773 99 -14.6226 45.7828 7 9 249
1908032S12057 1908 5 SI MM NOT_NAMED 1908-02-05 21:00:00 NR -14.6344 45.7758 main 124 124 _____P____P___ -1 -14.4940 46.1380 99 -14.7748 45.4137 7 8 249
1908032S12057 1908 5 SI MM NOT_NAMED 1908-02-06 00:00:00 NR -14.7693 45.4101 main 124 119 _____P____O___ -1 -14.6387 45.7203 99 -14.9000 45.1000 7 7 250
1908032S12057 1908 5 SI MM NOT_NAMED 1908-02-06 03:00:00 NR -14.8728 45.1019 main 123 113 _____P____P___ -1 -14.7754 45.3367 99 -14.9703 44.8672 7 6 251
1908032S12057 1908 5 SI MM NOT_NAMED 1908-02-06 06:00:00 NR -14.9573 44.8448 reunion main 116 116 _____O____P___ -1 -14.9000 45.0000 99 9.90000 -15.0146 44.6896 7 5 251
1908032S12057 1908 5 SI MM NOT_NAMED 1908-02-06 09:00:00 NR -15.0234 44.6460 main 124 114 _____P____P___ -1 -14.9952 44.7498 99 -15.0516 44.5422 7 4 250
1908032S12057 1908 5 SI MM NOT_NAMED 1908-02-06 12:00:00 NR -15.0900 44.4720 main 119 119 _____P____O___ -1 -15.0800 44.5439 99 -15.1000 44.4000 7 4 246
1908032S12057 1908 5 SI MM NOT_NAMED 1908-02-06 15:00:00 NR -15.1712 44.2977 main 123 116 _____P____P___ -1 -15.1568 44.3745 99 -15.1856 44.2210 7 4 243
1908032S12057 1908 5 SI MM NOT_NAMED 1908-02-06 18:00:00 NR -15.2564 44.1381 main 116 116 _____P____P___ -1 -15.2278 44.2337 99 -15.2850 44.0425 7 3 240
1908032S12057 1908 5 SI MM NOT_NAMED 1908-02-06 21:00:00 NR -15.3436 43.9908 main 119 109 _____P____P___ -1 -15.2954 44.1137 99 -15.3919 43.8678 7 3 237
1908032S12057 1908 5 SI MM NOT_NAMED 1908-02-07 00:00:00 NR -15.4309 43.8533 main 114 110 _____P____O___ -1 -15.3618 44.0067 99 -15.5000 43.7000 7 3 237
1908032S12057 1908 5 SI MM NOT_NAMED 1908-02-07 03:00:00 NR -15.5146 43.7197 main 116 108 _____P____P___ -1 -15.4293 43.9047 99 -15.6000 43.5347 7 3 237
1908032S12057 1908 5 SI MM NOT_NAMED 1908-02-07 06:00:00 NR -15.6000 43.5887 reunion main 116 116 _____O____P___ -1 -15.5000 43.8000 99 9.90000 -15.7000 43.3775 7 3 237
1908032S12057 1908 5 SI MM NOT_NAMED 1908-02-07 09:00:00 NR -15.6866 43.4408 main 126 126 _____P____P___ -1 -15.5733 43.6501 99 -15.8000 43.2315 7 3 238
1908032S12057 1908 5 SI MM NOT_NAMED 1908-02-07 12:00:00 NR -15.7737 43.3007 main 130 130 _____P____O___ -1 -15.6475 43.5014 99 -15.9000 43.1000 7 3 236
1908032S12057 1908 5 SI MM NOT_NAMED 1908-02-07 15:00:00 NR -15.8600 43.1723 main 135 135 _____P____P___ -1 -15.7242 43.3551 99 -15.9959 42.9896 7 3 234
1908032S12057 1908 5 SI MM NOT_NAMED 1908-02-07 18:00:00 NR -15.9487 43.0523 main 145 145 _____P____P___ -1 -15.8050 43.2123 99 -16.0924 42.8924 7 3 231
1908032S12057 1908 5 SI MM NOT_NAMED 1908-02-07 21:00:00 NR -16.0421 42.9366 main 163 161 _____P____P___ -1 -15.8914 43.0742 99 -16.1927 42.7990 7 3 229
1908032S12057 1908 5 SI MM NOT_NAMED 1908-02-08 00:00:00 NR -16.1425 42.8210 main 172 171 _____P____O___ -1 -15.9850 42.9420 99 -16.3000 42.7000 7 3 228
1908032S12057 1908 5 SI MM NOT_NAMED 1908-02-08 03:00:00 NR -16.2506 42.6935 main 179 179 _____P____P___ -1 -16.0874 42.8169 99 -16.4138 42.5700 7 3 227
1908032S12057 1908 5 SI MM NOT_NAMED 1908-02-08 06:00:00 NR -16.3675 42.5675 reunion main 183 183 _____O____P___ -1 -16.2000 42.7000 99 9.90000 -16.5351 42.4351 7 3 224
1908032S12057 1908 5 SI MM NOT_NAMED 1908-02-08 09:00:00 NR -16.4991 42.4460 main 194 188 _____P____P___ -1 -16.3343 42.5844 99 -16.6638 42.3075 7 4 219
1908032S12057 1908 5 SI MM NOT_NAMED 1908-02-08 12:00:00 NR -16.6401 42.3381 main 197 187 _____P____O___ -1 -16.4802 42.4761 99 -16.8000 42.2000 7 3 212
1908032S12057 1908 5 SI MM NOT_NAMED 1908-02-08 15:00:00 NR -16.7884 42.2519 main 187 187 _____P____P___ -1 -16.6341 42.3754 99 -16.9428 42.1284 7 3 207
1908032S12057 1908 5 SI MM NOT_NAMED 1908-02-08 18:00:00 NR -16.9424 42.1801 main 192 189 _____P____P___ -1 -16.7924 42.2827 99 -17.0924 42.0774 7 3 202
1908032S12057 1908 5 SI MM NOT_NAMED 1908-02-08 21:00:00 NR -17.0988 42.1181 main 196 194 _____P____P___ -1 -16.9517 42.1985 99 -17.2459 42.0377 7 3 200
1908032S12057 1908 5 SI MM NOT_NAMED 1908-02-09 00:00:00 NR -17.2542 42.0615 main 192 192 _____P____O___ -1 -17.1084 42.1230 99 -17.4000 42.0000 7 3 200
1908032S12057 1908 5 SI MM NOT_NAMED 1908-02-09 03:00:00 NR -17.4086 41.9993 main 201 201 _____P____P___ -1 -17.2590 42.0567 99 -17.5581 41.9419 7 3 201
1908032S12057 1908 5 SI MM NOT_NAMED 1908-02-09 06:00:00 NR -17.5575 41.9425 reunion main 212 212 _____O____P___ -1 -17.4000 42.0000 99 9.90000 -17.7150 41.8850 7 3 201
1908032S12057 1908 5 SI MM NOT_NAMED 1908-02-09 09:00:00 NR -17.6876 41.8898 main 213 213 _____P____P___ -1 -17.5109 41.9440 99 -17.8644 41.8357 7 3 200
1908032S12057 1908 5 SI MM NOT_NAMED 1908-02-09 12:00:00 NR -17.8062 41.8488 main 225 225 _____P____O___ -1 -17.6124 41.8976 99 -18.0000 41.8000 7 2 198
1908032S12057 1908 5 SI MM NOT_NAMED 1908-02-09 15:00:00 NR -17.9070 41.8210 main 226 226 _____P____P___ -1 -17.7077 41.8605 99 -18.1062 41.7815 7 2 192
1908032S12057 1908 5 SI MM NOT_NAMED 1908-02-09 18:00:00 NR -17.9999 41.8049 main 229 229 _____P____P___ -1 -17.7999 41.8323 99 -18.2000 41.7775 7 2 0
1908032S12057 1908 5 SI MM NOT_NAMED 1908-02-09 21:00:00 NR -18.0929 41.7986 main 232 232 _____P____P___ -1 -17.8921 41.8126 99 -18.2937 41.7847 7 2 181
1908032S12057 1908 5 SI MM NOT_NAMED 1908-02-10 00:00:00 NR -18.1937 41.8004 main 232 232 _____P____O___ -1 -17.9874 41.8009 99 -18.4000 41.8000 7 2 0
1908032S12057 1908 5 SI MM NOT_NAMED 1908-02-10 03:00:00 NR -18.3144 41.8073 main 232 232 _____P____P___ -1 -18.0890 41.7968 99 -18.5397 41.8178 7 3 175
1908032S12057 1908 5 SI MM NOT_NAMED 1908-02-10 06:00:00 NR -18.4463 41.8212 reunion main 232 232 _____O____P___ -1 -18.2000 41.8000 99 9.90000 -18.6925 41.8425 7 3 178
1908032S12057 1908 5 SI MM NOT_NAMED 1908-02-10 09:00:00 NR -18.5854 41.8320 main 233 233 _____P____P___ -1 -18.3218 41.7932 99 -18.8491 41.8709 7 3 176
1908032S12057 1908 5 SI MM NOT_NAMED 1908-02-10 12:00:00 NR -18.7254 41.8466 main 234 225 _____P____O___ -1 -18.4509 41.7932 99 -19.0000 41.9000 7 3 175
1908032S12057 1908 5 SI MM NOT_NAMED 1908-02-10 15:00:00 NR -18.8497 41.8570 main 225 225 _____P____P___ -1 -18.5876 41.8011 99 -19.1119 41.9130 7 3 0
1908032S12057 1908 5 SI MM NOT_NAMED 1908-02-10 18:00:00 NR -18.9762 41.8729 main 231 231 _____P____P___ -1 -18.7323 41.8181 99 -19.2200 41.9277 7 3 170
1908032S12057 1908 5 SI MM NOT_NAMED 1908-02-10 21:00:00 NR -19.1143 41.8995 main 234 234 _____P____P___ -1 -18.8856 41.8454 99 -19.3431 41.9536 7 3 166
1908032S12057 1908 5 SI MM NOT_NAMED 1908-02-11 00:00:00 NR -19.2738 41.9420 main 242 232 _____P____O___ -1 -19.0477 41.8840 99 -19.5000 42.0000 7 4 165
1908032S12057 1908 5 SI MM NOT_NAMED 1908-02-11 03:00:00 NR -19.4726 42.0047 main 235 224 _____P____P___ -1 -19.2190 41.9352 99 -19.7263 42.0742 7 4 162
1908032S12057 1908 5 SI MM NOT_NAMED 1908-02-11 06:00:00 NR -19.6925 42.0849 reunion main 224 203 _____O____P___ -1 -19.4000 42.0000 99 9.90000 -19.9850 42.1698 7 5 160
1908032S12057 1908 5 SI MM NOT_NAMED 1908-02-11 09:00:00 NR -19.9308 42.1828 main 203 179 _____P____P___ -1 -19.6104 42.0852 99 -20.2513 42.2805 7 5 158
1908032S12057 1908 5 SI MM NOT_NAMED 1908-02-11 12:00:00 NR -20.1670 42.2929 main 179 159 _____P____O___ -1 -19.8340 42.1859 99 -20.5000 42.4000 7 5 154
1908032S12057 1908 5 SI MM NOT_NAMED 1908-02-11 15:00:00 NR -20.3866 42.4121 main 159 137 _____P____P___ -1 -20.0644 42.2983 99 -20.7088 42.5259 7 5 152
1908032S12057 1908 5 SI MM NOT_NAMED 1908-02-11 18:00:00 NR -20.5952 42.5380 main 137 106 _____P____P___ -1 -20.2953 42.4185 99 -20.8950 42.6575 7 5 149
1908032S12057 1908 5 SI MM NOT_NAMED 1908-02-11 21:00:00 NR -20.7897 42.6640 main 106 85 _____P____P___ -1 -20.5206 42.5428 99 -21.0588 42.7853 7 4 148
1908032S12057 1908 5 SI MM NOT_NAMED 1908-02-12 00:00:00 NR -20.9670 42.7836 main 85 70 _____P____O___ -1 -20.7340 42.6671 99 -21.2000 42.9000 7 4 148
1908032S12057 1908 5 SI MM NOT_NAMED 1908-02-12 03:00:00 NR -21.1294 42.8885 main 70 52 _____P____P___ -1 -20.9292 42.7875 99 -21.3296 42.9895 7 4 148
1908032S12057 1908 5 SI MM NOT_NAMED 1908-02-12 06:00:00 NR -21.2687 42.9826 reunion main 52 41 _____O____P___ -1 -21.1000 42.9000 99 9.90000 -21.4374 43.0652 7 3 146
1908032S12057 1908 5 SI MM NOT_NAMED 1908-02-12 09:00:00 NR -21.3782 43.0613 main 41 41 _____P____P___ -1 -21.2298 42.9894 99 -21.5265 43.1332 7 2 145
1908032S12057 1908 5 SI MM NOT_NAMED 1908-02-12 12:00:00 NR -21.4685 43.1361 main 41 31 _____P____O___ -1 -21.3370 43.0722 99 -21.6000 43.2000 7 2 139
1908032S12057 1908 5 SI MM NOT_NAMED 1908-02-12 15:00:00 NR -21.5447 43.2145 main 31 20 _____P____P___ -1 -21.4250 43.1498 99 -21.6644 43.2791 7 2 134
1908032S12057 1908 5 SI MM NOT_NAMED 1908-02-12 18:00:00 NR -21.6061 43.2904 main 20 10 _____P____P___ -1 -21.4973 43.2233 99 -21.7150 43.3576 7 2 130
1908032S12057 1908 5 SI MM NOT_NAMED 1908-02-12 21:00:00 NR -21.6578 43.3630 main 10 10 _____P____P___ -1 -21.5574 43.2939 99 -21.7581 43.4322 7 2 127
1908032S12057 1908 5 SI MM NOT_NAMED 1908-02-13 00:00:00 NR -21.7045 43.4313 main 10 0 _____P____O___ -1 -21.6089 43.3627 99 -21.8000 43.5000 7 2 128
1908032S12057 1908 5 SI MM NOT_NAMED 1908-02-13 03:00:00 NR -21.7526 43.4900 main 0 0 _____P____P___ -1 -21.6553 43.4310 99 -21.8500 43.5491 7 1 132
1908032S12057 1908 5 SI MM NOT_NAMED 1908-02-13 06:00:00 NR -21.8000 43.5463 reunion main 0 0 _____O____P___ -1 -21.7000 43.5000 99 9.90000 -21.8999 43.5926 7 2 133
1908032S12057 1908 5 SI MM NOT_NAMED 1908-02-13 09:00:00 NR -21.8565 43.6074 main 0 0 _____P____P___ -1 -21.7631 43.5750 99 -21.9500 43.6397 7 2 133
1908032S12057 1908 5 SI MM NOT_NAMED 1908-02-13 12:00:00 NR -21.9112 43.6750 main 0 0 _____P____O___ -1 -21.8225 43.6501 99 -22.0000 43.7000 7 2 128
1908032S12057 1908 5 SI MM NOT_NAMED 1908-02-13 15:00:00 NR -21.9661 43.7574 main 0 0 _____P____P___ -1 -21.8781 43.7251 99 -22.0541 43.7897 7 2 125
1908032S12057 1908 5 SI MM NOT_NAMED 1908-02-13 18:00:00 NR -22.0187 43.8463 main 0 0 _____P____P___ -1 -21.9299 43.8001 99 -22.1075 43.8925 7 2 121
1908032S12057 1908 5 SI MM NOT_NAMED 1908-02-13 21:00:00 NR -22.0676 43.9370 main 0 0 _____P____P___ -1 -21.9781 43.8751 99 -22.1572 43.9990 7 2 119
1908032S12057 1908 5 SI MM NOT_NAMED 1908-02-14 00:00:00 NR -22.1112 44.0250 main 0 0 _____P____O___ -1 -22.0225 43.9500 99 -22.2000 44.1000 7 2 118
1908032S12057 1908 5 SI MM NOT_NAMED 1908-02-14 03:00:00 NR -22.1476 44.0996 main 0 0 _____P____P___ -1 -22.0631 44.0250 99 -22.2321 44.1741 7 2 116
1908032S12057 1908 5 SI MM NOT_NAMED 1908-02-14 06:00:00 NR -22.1787 44.1713 reunion main 0 0 _____O____P___ -1 -22.1000 44.1000 99 9.90000 -22.2574 44.2426 7 1 113
1908032S12057 1908 5 SI MM NOT_NAMED 1908-02-14 09:00:00 NR -22.2066 44.2449 main 0 0 _____P____P___ -1 -22.1343 44.1751 99 -22.2790 44.3147 7 2 110
1908032S12057 1908 5 SI MM NOT_NAMED 1908-02-14 12:00:00 NR -22.2322 44.3251 main 0 0 _____P____O___ -1 -22.1643 44.2501 99 -22.3000 44.4000 7 2 107
1908032S12057 1908 5 SI MM NOT_NAMED 1908-02-14 15:00:00 NR -22.2580 44.4219 main 0 0 _____P____P___ -1 -22.1910 44.3251 99 -22.3251 44.5187 7 2 105
1908032S12057 1908 5 SI MM NOT_NAMED 1908-02-14 18:00:00 NR -22.2825 44.5251 main 0 0 _____P____P___ -1 -22.2149 44.4001 99 -22.3501 44.6500 7 2 104
1908032S12057 1908 5 SI MM NOT_NAMED 1908-02-14 21:00:00 NR -22.3061 44.6282 main 0 0 _____P____P___ -1 -22.2371 44.4751 99 -22.3751 44.7812 7 2 104
1908032S12057 1908 5 SI MM NOT_NAMED 1908-02-15 00:00:00 NR -22.3290 44.7250 main 0 0 _____P____O___ -1 -22.2581 44.5501 99 -22.4000 44.9000 7 2 105
1908032S12057 1908 5 SI MM NOT_NAMED 1908-02-15 03:00:00 NR -22.3499 44.8113 main 0 0 _____P____P___ -1 -22.2788 44.6250 99 -22.4209 44.9975 7 2 105
1908032S12057 1908 5 SI MM NOT_NAMED 1908-02-15 06:00:00 NR -22.3712 44.8900 reunion main 0 0 _____O____P___ -1 -22.3000 44.7000 99 9.90000 -22.4425 45.0800 7 1 108
1908032S12057 1908 5 SI MM NOT_NAMED 1908-02-15 09:00:00 NR -22.3945 44.9622 main 0 0 _____P____P___ -1 -22.3212 44.7770 99 -22.4678 45.1475 7 1 111
1908032S12057 1908 5 SI MM NOT_NAMED 1908-02-15 12:00:00 NR -22.4209 45.0271 main 0 0 _____P____O___ -1 -22.3419 44.8541 99 -22.5000 45.2000 7 1 119
1908032S12057 1908 5 SI MM NOT_NAMED 1908-02-15 15:00:00 NR -22.4549 45.0812 main 0 0 _____P____P___ -1 -22.3629 44.9312 99 -22.5468 45.2313 7 1 127
1908032S12057 1908 5 SI MM NOT_NAMED 1908-02-15 18:00:00 NR -22.4925 45.1288 main 0 0 _____P____P___ -1 -22.3850 45.0076 99 -22.6000 45.2500 7 1 130
1908032S12057 1908 5 SI MM NOT_NAMED 1908-02-15 21:00:00 NR -22.5310 45.1759 main 0 0 _____P____P___ -1 -22.4090 45.0831 99 -22.6531 45.2688 7 1 129
1908032S12057 1908 5 SI MM NOT_NAMED 1908-02-16 00:00:00 NR -22.5678 45.2286 main 0 0 _____P____O___ -1 -22.4356 45.1573 99 -22.7000 45.3000 7 1 120
1908032S12057 1908 5 SI MM NOT_NAMED 1908-02-16 03:00:00 NR -22.5969 45.2972 main 0 0 _____P____P___ -1 -22.4657 45.2297 99 -22.7282 45.3647 7 1 114
1908032S12057 1908 5 SI MM NOT_NAMED 1908-02-16 06:00:00 NR -22.6250 45.3713 reunion main 0 0 _____O____P___ -1 -22.5000 45.3000 99 9.90000 -22.7500 45.4425 7 2 113
1908032S12057 1908 5 SI MM NOT_NAMED 1908-02-16 09:00:00 NR -22.6544 45.4475 main 0 0 _____P____P___ -1 -22.5369 45.3710 99 -22.7719 45.5241 7 2 115
1908032S12057 1908 5 SI MM NOT_NAMED 1908-02-16 12:00:00 NR -22.6887 45.5202 main 0 0 _____P____O___ -1 -22.5775 45.4403 99 -22.8000 45.6000 7 1 121
1908032S12057 1908 5 SI MM NOT_NAMED 1908-02-16 15:00:00 NR -22.7303 45.5824 main 0 0 _____P____P___ -1 -22.6219 45.5076 99 -22.8387 45.6572 7 1 128
1908032S12057 1908 5 SI MM NOT_NAMED 1908-02-16 18:00:00 NR -22.7775 45.6400 main 0 0 _____P____P___ -1 -22.6700 45.5725 99 -22.8850 45.7075 7 1 135
1908032S12057 1908 5 SI MM NOT_NAMED 1908-02-16 21:00:00 NR -22.8303 45.6943 main 0 0 _____P____P___ -1 -22.7219 45.6346 99 -22.9387 45.7541 7 1 139
1908032S12057 1908 5 SI MM NOT_NAMED 1908-02-17 00:00:00 NR -22.8887 45.7467 main 0 0 _____P____O___ -1 -22.7775 45.6934 99 -23.0000 45.8000 7 2 142
1908032S12057 1908 5 SI MM NOT_NAMED 1908-02-17 03:00:00 NR -22.9503 45.8014 main 0 0 _____P____P___ -1 -22.8369 45.7487 99 -23.0638 45.8541 7 2 142
1908032S12057 1908 5 SI MM NOT_NAMED 1908-02-17 06:00:00 NR -23.0175 45.8537 reunion main 0 0 _____O____P___ -1 -22.9000 45.8000 99 9.90000 -23.1350 45.9075 7 2 147
1908032S12057 1908 5 SI MM NOT_NAMED 1908-02-17 09:00:00 NR -23.0907 45.8982 main 0 0 _____P____P___ -1 -22.9675 45.8392 99 -23.2138 45.9572 7 2 152
1908032S12057 1908 5 SI MM NOT_NAMED 1908-02-17 12:00:00 NR -23.1698 45.9366 main 0 0 _____P____O___ -1 -23.0396 45.8733 99 -23.3000 46.0000 7 2 163
1908032S12057 1908 5 SI MM NOT_NAMED 1908-02-17 15:00:00 NR -23.2559 45.9643 main 0 0 _____P____P___ -1 -23.1149 45.9045 99 -23.3969 46.0241 7 2 167
1908032S12057 1908 5 SI MM NOT_NAMED 1908-02-17 18:00:00 NR -23.3461 45.9889 main 0 0 _____P____P___ -1 -23.1923 45.9353 99 -23.5000 46.0426 7 2 167
1908032S12057 1908 5 SI MM NOT_NAMED 1908-02-17 21:00:00 NR -23.4369 46.0163 main 0 0 _____P____P___ -1 -23.2707 45.9678 99 -23.6031 46.0647 7 2 164
1908032S12057 1908 5 SI MM NOT_NAMED 1908-02-18 00:00:00 NR -23.5245 46.0523 main 0 0 _____P____O___ -1 -23.3489 46.0046 99 -23.7000 46.1000 7 2 156
1908032S12057 1908 5 SI MM NOT_NAMED 1908-02-18 03:00:00 NR -23.6019 46.1042 main 0 0 _____P____P___ -1 -23.4257 46.0478 99 -23.7781 46.1606 7 2 146
1908032S12057 1908 5 SI MM NOT_NAMED 1908-02-18 06:00:00 NR -23.6750 46.1675 reunion main 0 0 _____O____P___ -1 -23.5000 46.1000 99 9.90000 -23.8500 46.2350 7 2 137
1908032S12057 1908 5 SI MM NOT_NAMED 1908-02-18 09:00:00 NR -23.7387 46.2382 main 0 0 _____P____P___ -1 -23.5556 46.1596 99 -23.9219 46.3169 7 2 134
1908032S12057 1908 5 SI MM NOT_NAMED 1908-02-18 12:00:00 NR -23.8038 46.3132 main 0 0 _____P____O___ -1 -23.6077 46.2264 99 -24.0000 46.4000 7 2 136
1908032S12057 1908 5 SI MM NOT_NAMED 1908-02-18 15:00:00 NR -23.8779 46.3879 main 0 0 _____P____P___ -1 -23.6590 46.3009 99 -24.0969 46.4750 7 2 137
1908032S12057 1908 5 SI MM NOT_NAMED 1908-02-18 18:00:00 NR -23.9561 46.4667 main 0 0 _____P____P___ -1 -23.7123 46.3833 99 -24.2000 46.5500 7 2 137
1908032S12057 1908 5 SI MM NOT_NAMED 1908-02-18 21:00:00 NR -24.0367 46.5495 main 0 0 _____P____P___ -1 -23.7703 46.4741 99 -24.3031 46.6250 7 2 136
1908032S12057 1908 5 SI MM NOT_NAMED 1908-02-19 00:00:00 NR -24.1179 46.6368 main 0 0 _____P____O___ -1 -23.8357 46.5735 99 -24.4000 46.7000 7 2 135
1908032S12057 1908 5 SI MM NOT_NAMED 1908-02-19 03:00:00 NR -24.1988 46.7305 main 0 0 _____P____P___ -1 -23.9114 46.6820 99 -24.4862 46.7791 7 2 133
1908032S12057 1908 5 SI MM NOT_NAMED 1908-02-19 06:00:00 NR -24.2825 46.8288 reunion main 0 0 _____O____P___ -1 -24.0000 46.8000 99 9.90000 -24.5650 46.8575 7 3 133
1908032S12057 1908 5 SI MM NOT_NAMED 1908-02-19 09:00:00 NR -24.3699 46.9299 main 0 0 _____P____P___ -1 -24.1035 46.9276 99 -24.6363 46.9322 7 3 134
1908032S12057 1908 5 SI MM NOT_NAMED 1908-02-19 12:00:00 NR -24.4604 47.0320 main 0 0 _____P____O___ -1 -24.2207 47.0639 99 -24.7000 47.0000 7 3 135
1908032S12057 1908 5 SI MM NOT_NAMED 1908-02-19 15:00:00 NR -24.5531 47.1333 main 0 0 _____P____P___ -1 -24.3496 47.2078 99 -24.7566 47.0587 7 3 129
1908032S12057 1908 5 SI MM NOT_NAMED 1908-02-19 18:00:00 NR -24.6250 47.2518 main 10 10 _____P____P___ -1 -24.4882 47.3582 99 -24.8075 47.1100 7 3 123
1908032S12057 1908 5 SI MM NOT_NAMED 1908-02-19 21:00:00 NR -24.7079 47.3946 main 20 20 _____P____P___ -1 -24.6345 47.5137 99 -24.8547 47.1562 7 3 125
1908032S12057 1908 5 SI MM NOT_NAMED 1908-02-20 00:00:00 NR -24.8149 47.5550 main 41 41 _____P____O___ -1 -24.7866 47.6734 99 -24.9000 47.2000 7 5 120
1908032S12057 1908 5 SI MM NOT_NAMED 1908-02-20 03:00:00 NR -24.9424 47.8359 main 64 64 _____P________ -1 -24.9424 47.8359 99 7 5 125
1908032S12057 1908 5 SI MM NOT_NAMED 1908-02-20 06:00:00 NR -25.1000 48.0000 reunion main 91 _____O________ -1 -25.1000 48.0000 99 9.90000 7 4 137

IBTrACS Databaseについて

本データベースは、米国NOAAが公開する1842年以降の世界の熱帯低気圧のベストトラックデータアーカイブInternational Best Track Archive for Climate Stewardship (IBTrACS)を、ウェブで閲覧しやすい形式に変換したものです。

最終更新日:2021-11-26